Time;durP1;ratioP1;P1;durP2;ratioP2;P2;SDS_P1;SDS_P2;PMS_P1;PMS_P2;Temp;Humidity;BMP_temperature;BMP_pressure;BME280_temperature;BME280_humidity;BME280_pressure;Samples;Min_cycle;Max_cycle;Signal;HPM_P1;HPM_P2
2024/03/21 00:04:11;;;;;;;16.33;11.20;;;13.70;77.70;;;;;;10300156;28;20224;-67
2024/03/21 00:09:15;;;;;;;15.80;10.10;;;13.70;77.60;;;;;;10302423;28;20227;-67
2024/03/21 00:14:17;;;;;;;17.25;11.00;;;13.60;77.60;;;;;;10299482;28;20857;-65
2024/03/21 00:19:20;;;;;;;14.07;11.30;;;13.60;78.10;;;;;;10301506;28;20216;-65
2024/03/21 00:24:24;;;;;;;14.90;12.05;;;13.50;77.90;;;;;;10295821;28;20653;-67
2024/03/21 00:29:27;;;;;;;19.83;12.27;;;13.50;78.30;;;;;;10297858;28;20236;-66
2024/03/21 00:34:29;;;;;;;17.83;12.50;;;13.40;78.10;;;;;;10313326;28;20310;-68
2024/03/21 00:39:33;;;;;;;18.85;13.55;;;13.30;77.90;;;;;;10294676;28;20601;-67
2024/03/21 00:44:36;;;;;;;18.20;13.27;;;13.30;78.20;;;;;;10298807;28;20232;-68
2024/03/21 00:49:38;;;;;;;17.50;13.25;;;13.30;78.00;;;;;;10296010;28;20312;-67
2024/03/21 00:54:42;;;;;;;16.40;12.93;;;13.20;78.40;;;;;;10295094;28;20264;-66
2024/03/21 00:59:47;;;;;;;16.27;13.30;;;13.30;78.30;;;;;;10297035;28;20277;-66
2024/03/21 01:04:51;;;;;;;18.73;13.50;;;13.30;78.20;;;;;;10302738;28;20293;-66
2024/03/21 01:09:55;;;;;;;17.88;12.90;;;13.30;78.40;;;;;;10297010;28;20242;-66
2024/03/21 01:14:57;;;;;;;18.70;12.73;;;13.30;78.50;;;;;;10295990;28;20228;-66
2024/03/21 01:20:00;;;;;;;20.75;14.13;;;13.30;78.30;;;;;;10295712;28;20273;-66
2024/03/21 01:25:05;;;;;;;17.70;13.32;;;13.20;78.60;;;;;;10291217;28;21695;-67
2024/03/21 01:30:09;;;;;;;18.88;12.68;;;13.30;78.70;;;;;;10310254;22;20885;-63
2024/03/21 01:35:11;;;;;;;22.10;14.05;;;13.30;78.50;;;;;;10280073;28;20275;-61
2024/03/21 01:40:15;;;;;;;16.95;12.48;;;13.30;78.80;;;;;;10281369;28;20229;-64
2024/03/21 01:45:18;;;;;;;20.10;13.27;;;13.30;78.90;;;;;;10267418;28;20212;-63
2024/03/21 01:50:21;;;;;;;19.70;12.57;;;13.30;78.80;;;;;;10280923;28;21405;-65
2024/03/21 01:55:25;;;;;;;16.73;12.52;;;13.30;78.90;;;;;;10266302;28;20205;-62
2024/03/21 02:00:28;;;;;;;14.57;11.30;;;13.40;79.00;;;;;;10284618;28;20225;-62
2024/03/21 02:05:31;;;;;;;14.63;11.30;;;13.40;79.10;;;;;;10285291;28;20205;-62
2024/03/21 02:10:35;;;;;;;15.60;11.45;;;13.40;79.40;;;;;;10270790;28;20309;-63
2024/03/21 02:15:38;;;;;;;12.98;10.95;;;13.40;79.50;;;;;;10270136;28;20286;-63
2024/03/21 02:20:41;;;;;;;14.85;11.15;;;13.40;79.20;;;;;;10278273;28;20891;-63
2024/03/21 02:25:45;;;;;;;15.77;11.60;;;13.40;79.40;;;;;;10293449;28;20691;-63
2024/03/21 02:30:48;;;;;;;14.60;11.48;;;13.40;79.20;;;;;;10275891;28;20283;-61
2024/03/21 02:35:50;;;;;;;14.65;11.48;;;13.40;79.60;;;;;;10290785;28;20259;-63
2024/03/21 02:40:54;;;;;;;15.00;11.23;;;13.40;79.60;;;;;;10292291;28;20228;-63
2024/03/21 02:45:57;;;;;;;18.48;11.73;;;13.40;79.70;;;;;;10275168;28;20220;-62
2024/03/21 02:51:00;;;;;;;16.23;11.55;;;13.40;79.70;;;;;;10272928;28;21487;-64
2024/03/21 02:56:04;;;;;;;16.65;12.75;;;13.40;80.80;;;;;;10273308;28;20213;-63
2024/03/21 03:01:32;;;;;;;16.77;12.52;;;13.40;79.80;;;;;;10275892;28;20220;-62
2024/03/21 03:06:35;;;;;;;19.67;14.50;;;13.40;80.20;;;;;;10288934;28;20205;-62
2024/03/21 03:11:39;;;;;;;21.67;17.85;;;13.40;80.40;;;;;;10289759;28;20327;-67
2024/03/21 03:16:42;;;;;;;17.02;13.82;;;13.40;80.30;;;;;;10290409;28;20263;-64
2024/03/21 03:21:44;;;;;;;21.45;15.98;;;13.40;80.30;;;;;;10272777;28;20287;-63
2024/03/21 03:26:48;;;;;;;21.17;16.50;;;13.30;80.70;;;;;;10266400;28;20213;-63
2024/03/21 03:31:52;;;;;;;24.85;19.65;;;13.40;81.00;;;;;;10273875;28;20275;-63
2024/03/21 03:36:54;;;;;;;23.40;18.15;;;13.40;80.60;;;;;;10271611;28;20278;-62
2024/03/21 03:41:58;;;;;;;20.55;18.35;;;13.40;81.00;;;;;;10272755;28;20232;-61
2024/03/21 03:47:01;;;;;;;20.27;18.15;;;13.40;81.50;;;;;;10272324;28;20331;-61
2024/03/21 03:52:04;;;;;;;23.35;18.35;;;13.30;81.30;;;;;;10289010;28;20264;-62
2024/03/21 03:57:08;;;;;;;23.15;17.17;;;13.30;81.30;;;;;;10271598;28;20231;-63
2024/03/21 04:02:11;;;;;;;20.55;16.52;;;13.30;81.40;;;;;;10270530;28;21727;-63
2024/03/21 04:07:14;;;;;;;20.17;17.00;;;13.30;81.80;;;;;;10287270;28;20212;-62
2024/03/21 04:12:18;;;;;;;26.23;17.08;;;13.20;81.70;;;;;;10269718;28;21112;-61
2024/03/21 04:17:21;;;;;;;23.38;17.95;;;13.20;81.60;;;;;;10270764;28;20216;-61
2024/03/21 04:22:23;;;;;;;23.23;17.92;;;13.20;81.70;;;;;;10284389;28;21070;-62
2024/03/21 04:27:28;;;;;;;24.25;18.35;;;13.20;81.70;;;;;;10285458;28;20217;-63
2024/03/21 04:32:30;;;;;;;24.77;18.40;;;13.20;81.80;;;;;;10286191;28;20244;-62
2024/03/21 04:37:33;;;;;;;23.75;19.35;;;13.20;82.00;;;;;;10265990;28;20262;-62
2024/03/21 04:42:36;;;;;;;26.30;22.30;;;13.20;82.00;;;;;;10267523;28;21279;-61
2024/03/21 04:47:39;;;;;;;28.55;23.73;;;13.30;82.10;;;;;;10264916;28;20338;-61
2024/03/21 04:52:42;;;;;;;31.58;24.15;;;13.30;82.40;;;;;;10283871;28;20224;-64
2024/03/21 04:57:47;;;;;;;31.40;23.45;;;13.30;82.30;;;;;;10269241;28;20222;-61
2024/03/21 05:02:49;;;;;;;32.13;23.05;;;13.20;82.60;;;;;;10266344;28;20314;-62
2024/03/21 05:07:52;;;;;;;26.33;19.83;;;13.30;82.20;;;;;;10266480;28;20217;-62
2024/03/21 05:12:56;;;;;;;28.58;21.83;;;13.30;82.20;;;;;;10283061;28;21637;-64
2024/03/21 05:17:59;;;;;;;29.00;21.30;;;13.30;83.90;;;;;;10266182;28;20213;-62
2024/03/21 05:23:01;;;;;;;26.45;20.42;;;13.30;82.90;;;;;;10267213;28;20229;-63
2024/03/21 05:28:06;;;;;;;30.00;19.10;;;13.20;82.80;;;;;;10269585;28;20361;-62
2024/03/21 05:33:10;;;;;;;21.88;17.90;;;13.20;82.90;;;;;;10266525;28;20241;-64
2024/03/21 05:38:13;;;;;;;24.50;17.88;;;13.20;84.30;;;;;;10268665;28;20294;-64
2024/03/21 05:43:17;;;;;;;19.75;15.32;;;13.10;83.00;;;;;;10266484;28;20294;-62
2024/03/21 05:48:19;;;;;;;20.75;16.05;;;13.10;84.40;;;;;;10266243;28;20286;-62
2024/03/21 05:53:23;;;;;;;21.45;17.73;;;13.00;83.60;;;;;;10264319;28;20751;-63
2024/03/21 05:58:27;;;;;;;24.23;17.00;;;13.00;83.30;;;;;;10286944;28;20737;-64
2024/03/21 06:03:30;;;;;;;23.17;17.45;;;13.00;84.00;;;;;;10261348;28;20271;-65
2024/03/21 06:08:33;;;;;;;22.63;17.10;;;13.00;83.60;;;;;;10258464;28;20290;-65
2024/03/21 06:13:37;;;;;;;20.98;17.25;;;13.10;83.70;;;;;;10264304;28;20306;-63
2024/03/21 06:18:39;;;;;;;22.23;18.63;;;13.10;83.90;;;;;;10291653;28;20282;-62
2024/03/21 06:23:42;;;;;;;20.15;16.27;;;13.20;84.20;;;;;;10302442;28;20233;-62
2024/03/21 06:28:46;;;;;;;21.40;16.65;;;13.20;84.30;;;;;;10300887;28;20229;-62
2024/03/21 06:33:48;;;;;;;19.90;15.60;;;13.30;84.40;;;;;;10286501;28;20252;-63
2024/03/21 06:38:51;;;;;;;17.25;14.80;;;13.20;84.40;;;;;;10294786;28;20212;-64
2024/03/21 06:43:55;;;;;;;20.98;15.02;;;13.20;84.30;;;;;;10296459;28;20232;-62
2024/03/21 06:48:58;;;;;;;20.20;16.35;;;13.20;84.00;;;;;;10301587;28;20314;-63
2024/03/21 06:54:01;;;;;;;19.05;16.02;;;13.30;84.20;;;;;;10328147;28;20508;-65
2024/03/21 06:59:05;;;;;;;20.05;16.35;;;13.20;84.70;;;;;;10260182;28;20209;-69
2024/03/21 07:04:08;;;;;;;21.45;17.25;;;13.20;84.20;;;;;;10283584;28;20229;-68
2024/03/21 07:09:12;;;;;;;17.67;15.27;;;13.30;84.20;;;;;;10292247;28;20260;-62
2024/03/21 07:14:16;;;;;;;14.75;13.15;;;13.30;84.30;;;;;;10340363;28;20440;-70
2024/03/21 07:19:19;;;;;;;14.15;11.73;;;13.30;84.20;;;;;;10324531;28;20646;-62
2024/03/21 07:24:21;;;;;;;14.90;10.68;;;13.40;84.20;;;;;;10307827;28;20217;-62
2024/03/21 07:29:25;;;;;;;12.48;9.55;;;13.40;84.60;;;;;;10308804;28;20229;-62
2024/03/21 07:34:28;;;;;;;10.95;9.77;;;13.50;83.40;;;;;;10307662;28;20678;-61
2024/03/21 07:39:30;;;;;;;12.13;9.65;;;13.50;83.10;;;;;;10305870;28;20271;-61
2024/03/21 07:44:34;;;;;;;12.48;9.95;;;13.50;83.00;;;;;;10308501;28;20228;-61
2024/03/21 07:49:37;;;;;;;12.85;10.65;;;13.50;82.90;;;;;;10303237;28;20275;-61
2024/03/21 07:54:39;;;;;;;12.15;10.00;;;13.50;83.00;;;;;;10291380;28;20282;-60
2024/03/21 07:59:43;;;;;;;12.80;10.27;;;13.50;83.10;;;;;;10300251;28;20302;-60
2024/03/21 08:04:46;;;;;;;8.60;7.63;;;13.50;83.20;;;;;;10302038;28;20221;-60
2024/03/21 08:09:49;;;;;;;8.85;7.85;;;13.50;82.90;;;;;;10290519;28;20233;-58
2024/03/21 08:14:52;;;;;;;8.23;7.43;;;13.50;82.60;;;;;;10289862;28;20212;-61
2024/03/21 08:19:56;;;;;;;9.23;8.32;;;13.50;82.30;;;;;;10296763;28;20221;-61
2024/03/21 08:24:59;;;;;;;8.40;7.60;;;13.40;82.30;;;;;;10301546;28;20282;-62
2024/03/21 08:30:03;;;;;;;11.02;9.82;;;13.40;82.20;;;;;;10307846;28;20259;-63
2024/03/21 08:35:06;;;;;;;9.10;8.20;;;13.50;81.80;;;;;;10273197;28;20247;-61
2024/03/21 08:40:09;;;;;;;9.75;8.35;;;13.50;81.60;;;;;;10274952;28;20243;-60
2024/03/21 08:45:14;;;;;;;10.55;7.47;;;13.50;81.30;;;;;;10297863;28;20220;-61
2024/03/21 08:50:16;;;;;;;8.90;8.00;;;13.50;81.00;;;;;;10300945;28;20237;-62
2024/03/21 08:55:19;;;;;;;12.75;11.55;;;13.50;80.90;;;;;;10310122;28;20879;-67
2024/03/21 09:00:23;;;;;;;13.00;11.70;;;13.50;80.50;;;;;;10299379;28;20229;-62
2024/03/21 09:05:25;;;;;;;12.05;10.75;;;13.50;80.20;;;;;;10320810;28;20283;-62
2024/03/21 09:10:29;;;;;;;13.20;11.77;;;13.50;80.00;;;;;;10304248;28;20825;-63
2024/03/21 09:15:33;;;;;;;12.73;11.43;;;13.30;79.70;;;;;;10293926;28;20290;-62
2024/03/21 09:20:36;;;;;;;11.73;10.13;;;13.20;79.90;;;;;;10277796;28;20282;-62
2024/03/21 09:25:38;;;;;;;10.10;9.10;;;13.20;80.10;;;;;;10302650;28;20217;-63
2024/03/21 09:30:44;;;;;;;10.25;9.25;;;13.30;80.10;;;;;;10297440;28;21392;-62
2024/03/21 09:35:56;;;;;;;11.05;9.98;;;13.40;80.00;;;;;;10297916;28;20217;-62
2024/03/21 09:41:01;;;;;;;11.55;10.35;;;13.40;79.80;;;;;;10320312;28;20229;-63
2024/03/21 09:46:05;;;;;;;10.25;9.27;;;13.40;79.80;;;;;;10299639;28;20217;-61
2024/03/21 09:51:16;;;;;;;11.10;9.95;;;13.50;79.90;;;;;;10301479;28;20262;-61
2024/03/21 09:56:19;;;;;;;11.52;9.88;;;13.60;79.50;;;;;;10297407;28;20270;-62
2024/03/21 10:01:24;;;;;;;11.38;9.45;;;13.60;79.40;;;;;;10316404;28;20317;-61
2024/03/21 10:06:27;;;;;;;10.77;9.65;;;13.60;79.50;;;;;;10307193;28;20255;-61
2024/03/21 10:11:30;;;;;;;11.55;9.85;;;13.70;79.60;;;;;;10299747;28;20240;-61
2024/03/21 10:16:34;;;;;;;11.18;10.00;;;13.70;79.40;;;;;;10318049;28;20274;-60
2024/03/21 10:21:37;;;;;;;9.95;8.40;;;13.70;79.00;;;;;;10308601;28;20575;-60
2024/03/21 10:26:39;;;;;;;9.65;8.40;;;13.60;78.60;;;;;;10313293;28;20582;-62
2024/03/21 10:31:44;;;;;;;10.65;9.50;;;13.60;78.80;;;;;;10297232;28;20237;-62
2024/03/21 10:36:47;;;;;;;9.90;8.20;;;13.50;79.10;;;;;;10304298;28;20216;-62
2024/03/21 10:41:50;;;;;;;7.50;6.72;;;13.50;78.70;;;;;;10312223;28;20286;-62
2024/03/21 10:46:58;;;;;;;6.20;5.60;;;13.40;78.60;;;;;;10333983;28;20642;-62
2024/03/21 10:52:05;;;;;;;10.40;9.18;;;13.40;78.40;;;;;;10318154;28;21038;-62
2024/03/21 10:57:18;;;;;;;12.02;10.80;;;13.40;78.50;;;;;;10318390;28;20302;-62
2024/03/21 11:02:22;;;;;;;10.00;8.63;;;13.50;78.40;;;;;;10314117;28;20220;-62
2024/03/21 11:07:31;;;;;;;9.90;8.73;;;13.60;78.60;;;;;;10313982;28;20283;-62
2024/03/21 11:12:35;;;;;;;14.90;11.30;;;13.70;78.10;;;;;;10310446;28;20240;-63
2024/03/21 11:17:39;;;;;;;11.68;9.00;;;13.70;77.90;;;;;;10310698;28;20209;-63
2024/03/21 11:22:44;;;;;;;10.00;9.02;;;13.70;77.80;;;;;;10318143;28;20221;-61
2024/03/21 11:27:47;;;;;;;8.88;8.07;;;13.70;77.70;;;;;;10315691;28;20274;-62
2024/03/21 11:32:51;;;;;;;8.85;6.95;;;13.90;77.90;;;;;;10317142;28;20270;-62
2024/03/21 11:37:53;;;;;;;12.88;9.90;;;14.10;77.80;;;;;;10320157;28;20270;-61
2024/03/21 11:43:03;;;;;;;9.98;7.47;;;14.10;77.60;;;;;;10320185;28;21461;-61
2024/03/21 11:48:09;;;;;;;19.92;18.15;;;14.10;77.60;;;;;;10308581;28;20466;-62
2024/03/21 11:53:12;;;;;;;19.90;17.80;;;14.10;77.70;;;;;;10308370;28;21542;-62
2024/03/21 11:58:15;;;;;;;12.02;10.75;;;14.00;77.50;;;;;;10306600;28;21343;-62
2024/03/21 12:03:19;;;;;;;12.90;10.27;;;14.00;77.40;;;;;;10303401;28;20278;-62
2024/03/21 12:08:22;;;;;;;28.70;25.92;;;14.10;77.30;;;;;;10299009;28;20226;-62
2024/03/21 12:13:24;;;;;;;15.70;14.15;;;14.40;76.90;;;;;;10299410;28;20236;-63
2024/03/21 12:18:31;;;;;;;13.98;12.55;;;14.40;76.60;;;;;;10300863;28;20225;-63
2024/03/21 12:23:33;;;;;;;15.43;13.80;;;14.40;76.80;;;;;;10315497;28;20227;-60
2024/03/21 12:28:36;;;;;;;16.13;10.70;;;14.80;76.80;;;;;;10300655;28;20309;-60
2024/03/21 12:33:40;;;;;;;13.52;12.10;;;15.20;76.00;;;;;;10300904;28;20843;-65
2024/03/21 12:38:43;;;;;;;10.68;9.50;;;15.50;75.30;;;;;;10276470;28;20212;-67
2024/03/21 12:43:45;;;;;;;14.10;12.90;;;15.40;75.50;;;;;;10274796;28;20232;-66
2024/03/21 12:48:49;;;;;;;11.32;10.23;;;15.50;75.30;;;;;;10272742;28;20216;-66
2024/03/21 12:53:52;;;;;;;11.23;10.13;;;15.60;75.60;;;;;;10268397;28;20236;-65
2024/03/21 12:58:54;;;;;;;12.90;11.27;;;15.80;75.20;;;;;;10269621;28;20201;-64
2024/03/21 13:03:58;;;;;;;13.57;12.15;;;15.80;75.10;;;;;;10268353;28;20220;-65
2024/03/21 13:09:01;;;;;;;11.52;9.95;;;15.70;75.30;;;;;;10272397;28;20283;-66
2024/03/21 13:14:04;;;;;;;12.65;10.20;;;15.60;74.90;;;;;;10267203;28;20260;-66
2024/03/21 13:19:08;;;;;;;11.65;10.48;;;15.40;76.10;;;;;;10259418;28;21292;-65
2024/03/21 13:24:10;;;;;;;14.35;11.68;;;15.40;75.20;;;;;;10264936;28;20229;-66
2024/03/21 13:29:13;;;;;;;10.52;9.48;;;15.30;75.70;;;;;;10280169;28;20217;-64
2024/03/21 13:34:17;;;;;;;12.80;11.52;;;15.30;75.30;;;;;;10333346;23;20277;-62
2024/03/21 13:39:20;;;;;;;13.65;12.25;;;15.30;75.40;;;;;;10308884;28;20285;-61
2024/03/21 13:44:23;;;;;;;12.35;10.90;;;15.40;75.20;;;;;;10277507;28;20225;-62
2024/03/21 13:49:27;;;;;;;10.32;8.93;;;15.40;75.20;;;;;;10275305;28;20283;-62
2024/03/21 13:54:36;;;;;;;8.43;6.65;;;15.60;74.90;;;;;;10276156;28;20695;-63
2024/03/21 13:59:39;;;;;;;8.48;7.47;;;15.80;74.70;;;;;;10276301;28;20247;-62
2024/03/21 14:04:43;;;;;;;8.48;6.43;;;16.00;74.80;;;;;;10289304;28;20232;-62
2024/03/21 14:09:46;;;;;;;8.88;6.88;;;16.40;74.40;;;;;;10272163;28;20213;-62
2024/03/21 14:14:49;;;;;;;10.93;8.30;;;16.40;73.20;;;;;;10281930;28;20863;-63
2024/03/21 14:19:53;;;;;;;9.77;8.63;;;16.20;73.70;;;;;;10331546;28;20336;-62
2024/03/21 14:24:58;;;;;;;9.13;8.13;;;16.00;72.50;;;;;;10284782;28;20290;-64
2024/03/21 14:30:05;;;;;;;9.90;8.90;;;15.90;74.70;;;;;;10284445;28;20224;-63
2024/03/21 14:35:09;;;;;;;8.90;8.00;;;16.00;73.80;;;;;;10285629;28;20304;-63
2024/03/21 14:40:13;;;;;;;9.55;8.75;;;16.20;73.20;;;;;;10286755;28;20323;-62
2024/03/21 14:45:16;;;;;;;7.88;6.88;;;16.40;73.00;;;;;;10283444;28;20213;-68
2024/03/21 14:50:20;;;;;;;10.32;5.95;;;16.40;72.50;;;;;;10275696;28;20228;-66
2024/03/21 14:55:22;;;;;;;7.28;6.25;;;16.30;72.30;;;;;;10275802;28;20576;-65
2024/03/21 15:00:25;;;;;;;8.48;6.60;;;16.30;72.40;;;;;;10270947;28;20302;-66
2024/03/21 15:05:29;;;;;;;9.38;6.95;;;16.10;72.80;;;;;;10269277;28;20197;-66
2024/03/21 15:10:33;;;;;;;8.98;7.63;;;16.00;73.30;;;;;;10311235;28;20298;-65
2024/03/21 15:15:36;;;;;;;8.48;7.68;;;16.00;73.40;;;;;;10325551;28;20374;-64
2024/03/21 15:20:41;;;;;;;13.65;12.15;;;16.00;73.30;;;;;;10298712;28;20232;-63
2024/03/21 15:25:44;;;;;;;12.32;9.50;;;15.90;71.30;;;;;;10293749;28;20217;-63
2024/03/21 15:30:46;;;;;;;22.33;20.13;;;15.70;72.50;;;;;;10272432;28;20302;-63
2024/03/21 15:35:50;;;;;;;31.35;25.90;;;15.70;72.40;;;;;;10277259;28;20208;-62
2024/03/21 15:40:54;;;;;;;30.13;26.92;;;15.60;72.40;;;;;;10288565;28;20321;-67
2024/03/21 15:45:56;;;;;;;28.02;24.58;;;15.70;72.80;;;;;;10276143;28;20675;-62
2024/03/21 15:51:00;;;;;;;24.50;22.10;;;15.80;73.00;;;;;;10295853;28;20220;-63
2024/03/21 15:56:03;;;;;;;22.13;19.83;;;15.80;72.30;;;;;;10276535;28;20213;-64
2024/03/21 16:01:07;;;;;;;17.08;15.40;;;15.70;72.00;;;;;;10280622;28;21744;-65
2024/03/21 16:06:10;;;;;;;18.42;15.73;;;15.60;72.40;;;;;;10279065;28;20263;-63
2024/03/21 16:11:13;;;;;;;18.25;16.40;;;15.60;72.30;;;;;;10289619;28;20282;-63
2024/03/21 16:16:16;;;;;;;18.55;16.55;;;15.50;72.70;;;;;;10289777;28;23152;-63
2024/03/21 16:21:20;;;;;;;19.48;17.23;;;15.50;72.60;;;;;;10284774;28;20267;-62
2024/03/21 16:26:25;;;;;;;18.40;16.13;;;15.40;72.70;;;;;;10283543;28;21292;-61
2024/03/21 16:31:27;;;;;;;15.90;14.18;;;15.30;72.80;;;;;;10305046;28;20295;-62
2024/03/21 16:36:31;;;;;;;16.83;12.65;;;15.10;72.40;;;;;;10289925;28;20232;-63
2024/03/21 16:41:34;;;;;;;14.75;13.23;;;15.00;72.70;;;;;;10290790;28;20220;-63
2024/03/21 16:46:36;;;;;;;14.05;12.35;;;14.80;72.90;;;;;;10290603;28;20688;-62
2024/03/21 16:51:40;;;;;;;16.27;12.60;;;14.70;72.40;;;;;;10294034;28;20865;-62
2024/03/21 16:56:43;;;;;;;16.88;13.32;;;14.50;72.90;;;;;;10291940;28;20227;-62
2024/03/21 17:01:46;;;;;;;14.65;13.13;;;14.50;73.40;;;;;;10275769;28;20232;-62
2024/03/21 17:06:50;;;;;;;15.77;10.60;;;14.50;73.70;;;;;;10280197;28;20259;-62
2024/03/21 17:11:52;;;;;;;10.77;9.18;;;14.40;73.50;;;;;;10281268;28;20229;-61
2024/03/21 17:16:55;;;;;;;11.52;10.30;;;14.30;73.30;;;;;;10289566;28;20585;-63
2024/03/21 17:22:02;;;;;;;9.40;7.95;;;14.20;73.50;;;;;;10284968;28;20278;-62
2024/03/21 17:27:05;;;;;;;11.07;7.70;;;14.20;73.80;;;;;;10288944;28;20221;-63
2024/03/21 17:32:08;;;;;;;8.48;6.80;;;14.10;73.70;;;;;;10291751;28;20232;-63
2024/03/21 17:37:12;;;;;;;7.13;6.43;;;14.10;73.60;;;;;;10293629;28;20204;-63
2024/03/21 17:42:15;;;;;;;7.82;6.53;;;14.00;73.70;;;;;;10293102;28;20228;-63
2024/03/21 17:47:17;;;;;;;7.38;6.55;;;14.00;73.90;;;;;;10294880;28;20216;-64
2024/03/21 17:52:21;;;;;;;7.65;6.22;;;14.00;74.20;;;;;;10283197;28;20236;-61
2024/03/21 17:57:24;;;;;;;8.02;7.22;;;14.00;74.20;;;;;;10276509;28;20220;-63
2024/03/21 18:02:27;;;;;;;8.23;7.43;;;14.00;74.30;;;;;;10275764;28;20232;-63
